Time;durP1;ratioP1;P1;durP2;ratioP2;P2;SDS_P1;SDS_P2;PMS_P1;PMS_P2;Temp;Humidity;BMP_temperature;BMP_pressure;BME280_temperature;BME280_humidity;BME280_pressure;Samples;Min_cycle;Max_cycle;Signal;HPM_P1;HPM_P2
2022/12/21 00:01:28;;;;;;;62.60;27.30;;;;;;;4.91;94.20;100174.84;660664;1312;139067;-85
2022/12/21 00:16:34;;;;;;;60.80;28.20;;;;;;;5.02;93.62;100177.91;660939;1312;138921;-84
2022/12/21 00:31:39;;;;;;;55.90;25.20;;;;;;;4.97;93.25;100164.56;660716;1312;139080;-85
2022/12/21 00:46:44;;;;;;;57.50;26.70;;;;;;;4.93;93.50;100154.42;660727;1313;138950;-84
2022/12/21 01:01:48;;;;;;;56.30;25.90;;;;;;;4.77;92.98;100133.98;660772;1312;138786;-84
2022/12/21 01:16:53;;;;;;;56.40;23.30;;;;;;;4.64;93.00;100128.73;660831;1312;138994;-83
2022/12/21 01:31:58;;;;;;;59.80;28.40;;;;;;;4.68;92.79;100134.20;660576;1298;138887;-83
2022/12/21 01:47:02;;;;;;;58.90;28.10;;;;;;;4.68;92.80;100116.75;660518;1312;139067;-83
2022/12/21 02:02:10;;;;;;;63.00;28.80;;;;;;;4.66;92.45;100113.73;660588;1312;138874;-82
2022/12/21 02:17:32;;;;;;;;;;;;;;;4.68;92.06;100100.13;660443;1312;139761;-82
2022/12/21 02:32:50;;;;;;;60.80;27.30;;;;;;;4.69;91.52;100084.09;660583;1308;125417;-83
2022/12/21 02:48:13;;;;;;;63.60;26.90;;;;;;;4.60;90.52;100067.71;661004;1306;139148;-83
2022/12/21 03:03:49;;;;;;;55.80;27.10;;;;;;;4.59;90.32;100057.55;660595;1312;139279;-82
2022/12/21 03:19:15;;;;;;;52.00;23.90;;;;;;;4.61;89.87;100061.27;660851;1312;138861;-82
2022/12/21 03:34:25;;;;;;;61.00;27.90;;;;;;;4.60;90.28;100041.52;660728;1312;139159;-83
2022/12/21 03:49:44;;;;;;;57.30;27.30;;;;;;;4.49;90.43;100053.01;660728;1312;138887;-83
2022/12/21 04:05:15;;;;;;;70.80;29.60;;;;;;;4.58;90.28;100040.67;660935;1312;138992;-82
2022/12/21 04:20:21;;;;;;;100.80;54.90;;;;;;;4.69;90.25;100022.59;660887;1312;138995;-82
2022/12/21 04:35:25;;;;;;;56.10;26.40;;;;;;;4.70;90.01;99999.13;660892;1311;139245;-82
2022/12/21 04:50:29;;;;;;;59.30;27.60;;;;;;;4.68;89.91;100002.91;660625;1311;138740;-83
2022/12/21 05:05:32;;;;;;;63.90;27.80;;;;;;;4.72;89.53;100015.48;660728;1312;139140;-83
2022/12/21 05:20:35;;;;;;;64.30;26.70;;;;;;;4.72;89.67;100009.05;660842;1294;139356;-83
2022/12/21 05:35:40;;;;;;;60.90;27.70;;;;;;;4.63;89.73;100016.40;660599;1312;139296;-83
2022/12/21 05:50:43;;;;;;;62.40;26.30;;;;;;;4.56;90.61;100011.98;660323;1310;139321;-83
2022/12/21 06:05:47;;;;;;;61.50;27.00;;;;;;;4.53;90.93;100015.17;660840;1302;138837;-83
2022/12/21 06:20:52;;;;;;;79.70;34.00;;;;;;;4.44;92.33;99992.01;660511;1305;139001;-83
2022/12/21 06:35:55;;;;;;;66.70;29.20;;;;;;;4.44;94.29;99978.74;660598;1311;138904;-83
2022/12/21 06:51:02;;;;;;;71.00;31.60;;;;;;;4.60;94.03;99963.92;660650;1300;138688;-83
2022/12/21 07:06:05;;;;;;;80.80;33.10;;;;;;;4.62;94.43;99962.92;660949;1312;138675;-83
2022/12/21 07:21:17;;;;;;;59.70;27.00;;;;;;;4.65;95.14;99983.50;661009;1298;138753;-83
2022/12/21 07:36:21;;;;;;;65.70;30.60;;;;;;;4.51;96.86;100000.05;661209;1311;138766;-84
2022/12/21 07:51:24;;;;;;;64.50;28.10;;;;;;;4.53;98.01;100002.38;660767;1299;139072;-84
2022/12/21 08:06:28;;;;;;;65.60;29.70;;;;;;;4.50;98.82;99989.76;660736;1307;138763;-84
2022/12/21 08:21:31;;;;;;;64.90;30.70;;;;;;;4.52;99.41;99986.09;660910;1312;138818;-84
2022/12/21 08:36:35;;;;;;;67.50;30.00;;;;;;;4.64;98.62;99988.66;660886;1312;139239;-87
2022/12/21 08:51:39;;;;;;;65.00;33.00;;;;;;;4.35;99.82;99977.54;660726;1305;138793;-86
2022/12/21 09:06:42;;;;;;;69.90;34.20;;;;;;;4.49;100.00;99983.21;660764;1310;138768;-86
2022/12/21 09:21:46;;;;;;;73.90;33.00;;;;;;;4.40;100.00;99990.21;660646;1302;139074;-86
2022/12/21 09:36:50;;;;;;;73.10;34.60;;;;;;;4.35;100.00;99988.98;660897;1311;138967;-86
2022/12/21 09:52:43;;;;;;;77.20;34.80;;;;;;;4.40;100.00;99973.77;660738;1312;139058;-85
2022/12/21 10:07:55;;;;;;;74.40;31.90;;;;;;;4.45;100.00;99963.35;660919;1312;141271;-85
2022/12/21 10:23:10;;;;;;;71.50;30.60;;;;;;;4.53;100.00;99952.77;661407;1301;138976;-85
2022/12/21 10:38:15;;;;;;;76.00;31.10;;;;;;;4.62;100.00;99946.67;660912;1312;139022;-85
2022/12/21 10:53:24;;;;;;;77.70;36.50;;;;;;;4.60;100.00;99940.23;661024;1306;138804;-84
2022/12/21 11:08:30;;;;;;;93.20;39.40;;;;;;;4.62;100.00;99917.73;660863;1312;139544;-85
2022/12/21 11:23:38;;;;;;;85.80;37.20;;;;;;;4.65;100.00;99906.61;660965;1312;138852;-86
2022/12/21 11:38:43;;;;;;;83.40;37.00;;;;;;;4.62;100.00;99895.22;660887;1310;139164;-85
2022/12/21 11:54:02;;;;;;;80.90;34.50;;;;;;;4.63;100.00;99895.70;660798;1312;138959;-85
2022/12/21 12:09:14;;;;;;;96.40;41.40;;;;;;;4.64;100.00;99879.31;661209;1305;139120;-85
2022/12/21 12:24:48;;;;;;;105.30;47.70;;;;;;;4.59;100.00;99885.35;661448;1313;138740;-86
2022/12/21 12:40:29;;;;;;;85.00;37.20;;;;;;;4.69;100.00;99873.97;660825;1312;139143;-86
2022/12/21 12:55:51;;;;;;;92.40;38.40;;;;;;;4.86;100.00;99876.61;660709;1311;141347;-85
2022/12/21 13:11:35;;;;;;;120.60;50.40;;;;;;;4.87;100.00;99875.10;661161;1308;141023;-85
2022/12/21 13:26:44;;;;;;;300.60;168.30;;;;;;;4.87;100.00;99880.48;661067;1312;139096;-85
2022/12/21 13:41:54;;;;;;;1030.70;542.70;;;;;;;4.91;100.00;99898.06;661201;1305;139127;-85
2022/12/21 13:57:30;;;;;;;136.60;66.30;;;;;;;4.90;100.00;99898.14;660922;1312;139884;-86
2022/12/21 14:12:54;;;;;;;111.60;48.60;;;;;;;4.91;100.00;99895.94;661222;1312;157166;-84
2022/12/21 14:28:10;;;;;;;127.00;51.00;;;;;;;4.95;100.00;99893.43;661214;1312;139065;-85
2022/12/21 14:43:17;;;;;;;141.00;51.60;;;;;;;4.94;100.00;99883.10;661100;1311;138935;-85
2022/12/21 14:58:24;;;;;;;138.30;59.70;;;;;;;4.90;100.00;99872.32;662207;1299;139109;-86
2022/12/21 15:13:59;;;;;;;122.60;47.60;;;;;;;4.91;100.00;99872.60;661078;1310;139063;-87
2022/12/21 15:29:04;;;;;;;137.50;55.50;;;;;;;4.83;100.00;99872.28;661121;1313;139172;-87
2022/12/21 15:44:33;;;;;;;118.80;44.10;;;;;;;4.77;100.00;99864.52;660941;1312;139154;-87
2022/12/21 15:59:41;;;;;;;102.50;39.80;;;;;;;4.79;100.00;99880.65;660895;1297;139161;-87
2022/12/21 16:14:45;;;;;;;117.00;48.80;;;;;;;4.82;100.00;99888.49;661067;1305;139971;-85
2022/12/21 16:29:53;;;;;;;134.00;50.70;;;;;;;4.86;100.00;99908.14;661183;1312;139019;-86
2022/12/21 16:44:56;;;;;;;128.40;48.80;;;;;;;4.88;100.00;99898.64;661190;1313;139313;-86
2022/12/21 17:00:00;;;;;;;148.80;51.70;;;;;;;4.85;100.00;99895.88;661068;1308;138966;-87
2022/12/21 17:15:19;;;;;;;170.10;62.20;;;;;;;4.90;100.00;99880.08;661112;1313;139042;-87
2022/12/21 17:30:30;;;;;;;136.40;54.10;;;;;;;4.96;100.00;99856.23;661119;1312;141124;-85
2022/12/21 17:45:39;;;;;;;142.40;48.70;;;;;;;4.97;100.00;99846.81;660868;1310;140559;-86
2022/12/21 18:00:45;;;;;;;205.00;72.40;;;;;;;5.04;100.00;99838.39;660881;1313;139138;-85
2022/12/21 18:15:54;;;;;;;169.90;62.40;;;;;;;5.06;100.00;99831.10;661057;1313;139554;-86
2022/12/21 18:31:04;;;;;;;173.10;59.00;;;;;;;5.10;100.00;99819.40;661033;1313;139271;-88
2022/12/21 18:46:12;;;;;;;211.10;77.20;;;;;;;5.13;100.00;99828.23;660794;1313;139280;-87
2022/12/21 19:01:19;;;;;;;160.80;52.90;;;;;;;5.03;100.00;99830.84;660964;1311;139365;-88
2022/12/21 19:16:26;;;;;;;150.90;55.00;;;;;;;5.05;100.00;99840.73;660949;1313;140315;-88
2022/12/21 19:31:30;;;;;;;155.00;58.50;;;;;;;5.04;100.00;99829.70;660938;1312;139111;-88
2022/12/21 19:46:34;;;;;;;144.30;57.00;;;;;;;5.05;100.00;99833.31;660956;1310;138944;-87
2022/12/21 20:01:37;;;;;;;147.20;56.90;;;;;;;5.06;100.00;99818.11;660773;1310;140134;-87
2022/12/21 20:16:40;;;;;;;117.90;47.20;;;;;;;4.99;100.00;99813.77;661214;1312;139203;-87
2022/12/21 20:31:53;;;;;;;151.40;62.80;;;;;;;4.97;100.00;99810.61;660850;1312;139205;-86
2022/12/21 20:46:57;;;;;;;115.10;45.00;;;;;;;5.00;100.00;99794.83;660722;1304;138981;-88
2022/12/21 21:02:02;;;;;;;107.80;38.70;;;;;;;5.00;100.00;99797.63;660854;1303;139260;-89
2022/12/21 21:17:24;;;;;;;125.10;43.40;;;;;;;4.99;100.00;99808.44;661144;1312;139440;-87
2022/12/21 21:32:28;;;;;;;105.20;40.40;;;;;;;5.02;100.00;99802.31;661343;1312;139042;-87
2022/12/21 21:47:33;;;;;;;93.10;35.80;;;;;;;4.99;100.00;99789.50;660867;1313;139120;-89
2022/12/21 22:02:45;;;;;;;106.50;39.30;;;;;;;5.06;100.00;99791.06;661005;1307;139129;-91
2022/12/21 22:17:49;;;;;;;120.30;39.00;;;;;;;5.06;100.00;99776.72;660816;1313;139343;-89
2022/12/21 22:32:52;;;;;;;114.60;38.40;;;;;;;5.05;100.00;99765.89;661055;1313;139197;-88
2022/12/21 22:47:56;;;;;;;103.40;39.50;;;;;;;5.15;100.00;99754.69;661012;1310;139317;-89
2022/12/21 23:02:59;;;;;;;99.00;35.30;;;;;;;5.14;100.00;99744.39;661205;1312;139215;-88
2022/12/21 23:18:32;;;;;;;111.90;35.70;;;;;;;5.19;100.00;99730.88;660498;1311;138980;-88
